Time;durP1;ratioP1;P1;durP2;ratioP2;P2;SDS_P1;SDS_P2;PMS_P1;PMS_P2;Temp;Humidity;BMP_temperature;BMP_pressure;BME280_temperature;BME280_humidity;BME280_pressure;Samples;Min_cycle;Max_cycle;Signal;HPM_P1;HPM_P2
2023/04/23 00:01:58;;;;;;;3.28;2.50;;;14.50;1.00;;;;;;6212557;23;20230;-90
2023/04/23 00:04:25;;;;;;;4.45;2.10;;;14.80;1.00;;;;;;6212931;23;20207;-91
2023/04/23 00:06:51;;;;;;;2.80;2.33;;;14.40;1.00;;;;;;6212942;23;20147;-92
2023/04/23 00:09:17;;;;;;;3.08;2.40;;;14.40;1.00;;;;;;6212699;23;20147;-92
2023/04/23 00:11:43;;;;;;;3.67;2.70;;;14.40;1.00;;;;;;6212533;23;20175;-92
2023/04/23 00:14:10;;;;;;;2.70;2.30;;;14.80;1.00;;;;;;6212582;23;20202;-93
2023/04/23 00:16:37;;;;;;;2.88;2.50;;;14.40;1.00;;;;;;6212644;23;20182;-92
2023/04/23 00:19:03;;;;;;;4.93;2.67;;;14.30;1.00;;;;;;6214327;23;20151;-92
2023/04/23 00:21:29;;;;;;;4.43;2.80;;;14.40;1.00;;;;;;6215542;23;20186;-92
2023/04/23 00:23:54;;;;;;;2.85;2.65;;;14.20;1.00;;;;;;6215173;23;20165;-92
2023/04/23 00:26:20;;;;;;;3.88;2.90;;;14.60;1.00;;;;;;6214864;23;20154;-91
2023/04/23 00:28:46;;;;;;;3.10;2.72;;;14.60;1.00;;;;;;6214511;23;20233;-89
2023/04/23 00:31:11;;;;;;;3.53;3.22;;;14.80;1.00;;;;;;6214444;23;20186;-91
2023/04/23 00:33:37;;;;;;;4.18;3.42;;;14.70;1.00;;;;;;6213678;23;20163;-91
2023/04/23 00:36:03;;;;;;;3.92;2.95;;;14.80;1.00;;;;;;6214016;23;20392;-92
2023/04/23 00:38:28;;;;;;;4.38;3.30;;;14.00;1.00;;;;;;6214080;23;20170;-92
2023/04/23 00:40:54;;;;;;;3.35;3.05;;;14.70;1.00;;;;;;6213630;23;20174;-91
2023/04/23 00:43:20;;;;;;;3.80;3.30;;;13.90;1.00;;;;;;6212801;23;20155;-92
2023/04/23 00:45:46;;;;;;;3.72;3.25;;;14.50;1.00;;;;;;6212084;23;20159;-91
2023/04/23 00:48:12;;;;;;;4.07;3.35;;;14.50;1.00;;;;;;6212279;23;20151;-91
2023/04/23 00:50:38;;;;;;;3.53;3.20;;;14.30;1.00;;;;;;6213235;23;20162;-91
2023/04/23 00:53:04;;;;;;;3.80;3.28;;;14.80;1.00;;;;;;6212958;23;20175;-92
2023/04/23 00:55:30;;;;;;;3.72;3.40;;;14.80;1.00;;;;;;6211991;23;20150;-92
2023/04/23 00:57:56;;;;;;;3.90;3.60;;;13.60;1.00;;;;;;6211849;23;20158;-92
2023/04/23 01:00:22;;;;;;;3.97;3.58;;;13.50;1.00;;;;;;6213190;23;20166;-92
2023/04/23 01:02:49;;;;;;;3.92;3.38;;;14.20;1.00;;;;;;6212084;23;20226;-91
2023/04/23 01:05:16;;;;;;;3.65;3.10;;;13.90;1.00;;;;;;6213595;23;20187;-92
2023/04/23 01:07:43;;;;;;;3.13;2.92;;;14.40;1.00;;;;;;6211141;23;20216;-91
2023/04/23 01:10:10;;;;;;;3.65;3.35;;;13.80;1.00;;;;;;6211625;23;20159;-92
2023/04/23 01:12:35;;;;;;;3.72;3.33;;;13.60;1.00;;;;;;6211181;23;20179;-94
2023/04/23 01:15:02;;;;;;;3.92;3.25;;;14.50;1.00;;;;;;6211883;23;20154;-94
2023/04/23 01:17:33;;;;;;;3.97;3.67;;;13.50;1.00;;;;;;6211263;23;20243;-93
2023/04/23 01:19:58;;;;;;;3.67;3.38;;;13.60;1.00;;;;;;6210789;23;20143;-92
2023/04/23 01:22:24;;;;;;;4.70;3.50;;;13.30;1.00;;;;;;6211653;23;20175;-94
2023/04/23 01:24:51;;;;;;;4.43;3.80;;;13.30;1.00;;;;;;6211616;23;20146;-93
2023/04/23 01:27:18;;;;;;;3.72;3.40;;;13.90;1.00;;;;;;6212594;23;20155;-92
2023/04/23 01:29:45;;;;;;;3.70;3.40;;;14.00;1.00;;;;;;6211753;23;20175;-93
2023/04/23 01:32:11;;;;;;;4.05;3.67;;;13.40;1.00;;;;;;6210832;23;20171;-93
2023/04/23 01:34:38;;;;;;;5.07;3.60;;;13.20;1.00;;;;;;6209796;23;20490;-93
2023/04/23 01:37:04;;;;;;;4.30;3.22;;;13.20;1.00;;;;;;6208997;23;20155;-91
2023/04/23 01:39:30;;;;;;;3.95;3.53;;;13.20;1.00;;;;;;6208820;23;20237;-91
2023/04/23 01:41:56;;;;;;;4.07;3.75;;;14.00;1.00;;;;;;6208404;23;20191;-93
2023/04/23 01:44:22;;;;;;;5.18;3.63;;;13.80;1.00;;;;;;6208498;23;20157;-93
2023/04/23 01:46:47;;;;;;;4.38;3.60;;;14.00;1.00;;;;;;6208661;23;20185;-93
2023/04/23 01:49:13;;;;;;;3.75;3.38;;;13.90;1.00;;;;;;6208198;23;20218;-93
2023/04/23 01:51:39;;;;;;;5.00;3.58;;;13.70;1.00;;;;;;6208952;23;20185;-91
2023/04/23 01:54:05;;;;;;;4.22;3.50;;;13.80;1.00;;;;;;6209169;23;20182;-93
2023/04/23 01:56:32;;;;;;;5.28;3.13;;;13.60;1.00;;;;;;6209284;23;20170;-93
2023/04/23 01:58:58;;;;;;;3.50;3.22;;;14.10;1.00;;;;;;6208415;23;20699;-92
2023/04/23 02:01:24;;;;;;;4.00;3.50;;;13.60;1.00;;;;;;6208108;23;20190;-91
2023/04/23 02:03:50;;;;;;;3.90;3.28;;;13.90;1.00;;;;;;6209086;23;20161;-92
2023/04/23 02:06:16;;;;;;;4.50;3.85;;;13.70;1.00;;;;;;6209405;23;20171;-91
2023/04/23 02:08:42;;;;;;;3.92;3.53;;;14.50;1.00;;;;;;6210017;23;20167;-91
2023/04/23 02:11:08;;;;;;;3.40;3.10;;;14.50;1.00;;;;;;6209572;23;20206;-92
2023/04/23 02:13:33;;;;;;;3.83;3.30;;;14.50;1.00;;;;;;6209267;23;20177;-93
2023/04/23 02:15:59;;;;;;;6.65;3.40;;;13.60;1.00;;;;;;6210022;23;20211;-93
2023/04/23 02:18:25;;;;;;;4.00;3.70;;;14.20;1.00;;;;;;6206460;23;20162;-92
2023/04/23 02:20:51;;;;;;;3.20;2.90;;;14.10;1.00;;;;;;6206541;23;20384;-93
2023/04/23 02:23:16;;;;;;;3.55;3.10;;;14.40;1.00;;;;;;6206904;23;20189;-93
2023/04/23 02:25:42;;;;;;;2.95;2.67;;;14.80;1.00;;;;;;6207330;23;20159;-92
2023/04/23 02:28:10;;;;;;;3.33;3.03;;;14.60;1.00;;;;;;6206842;23;20180;-93
2023/04/23 02:30:36;;;;;;;3.75;3.03;;;14.60;1.00;;;;;;6206797;23;20210;-94
2023/04/23 02:33:02;;;;;;;3.67;2.80;;;14.00;1.00;;;;;;6207353;23;20241;-94
2023/04/23 02:35:34;;;;;;;3.70;2.97;;;13.80;1.00;;;;;;6206737;23;20170;-93
2023/04/23 02:38:03;;;;;;;3.53;3.22;;;13.80;1.00;;;;;;6208771;23;20151;-92
2023/04/23 02:40:37;;;;;;;3.42;3.08;;;13.80;1.00;;;;;;6204504;23;20186;-93
2023/04/23 02:43:05;;;;;;;3.53;2.78;;;13.60;1.00;;;;;;6205686;23;20194;-93
2023/04/23 02:45:31;;;;;;;3.80;3.15;;;14.40;1.00;;;;;;6209930;23;20143;-91
2023/04/23 02:47:59;;;;;;;3.67;3.15;;;13.90;1.00;;;;;;6210637;23;20182;-92
2023/04/23 02:50:25;;;;;;;3.97;3.50;;;14.40;1.00;;;;;;6211517;23;20211;-92
2023/04/23 02:52:51;;;;;;;3.97;3.60;;;13.80;1.00;;;;;;6209309;23;20201;-93
2023/04/23 02:55:16;;;;;;;3.78;3.45;;;13.70;42.50;;;;;;6199807;23;20182;-93
2023/04/23 02:57:43;;;;;;;4.00;3.60;;;13.70;46.90;;;;;;6209385;23;20243;-93
2023/04/23 03:00:11;;;;;;;4.00;3.63;;;13.70;59.30;;;;;;6209976;23;20159;-92
2023/04/23 03:02:37;;;;;;;3.95;3.55;;;13.70;82.20;;;;;;6210415;23;20210;-93
2023/04/23 03:05:03;;;;;;;3.88;3.58;;;13.60;95.10;;;;;;6210974;23;20139;-93
2023/04/23 03:07:29;;;;;;;3.72;3.40;;;13.60;99.90;;;;;;6212143;23;20160;-92
2023/04/23 03:09:54;;;;;;;3.67;3.38;;;13.60;99.90;;;;;;6212349;23;20170;-92
2023/04/23 03:12:20;;;;;;;4.85;3.75;;;13.60;99.90;;;;;;6212206;23;20183;-92
2023/04/23 03:14:46;;;;;;;3.95;3.53;;;13.70;99.90;;;;;;6212749;23;20155;-91
2023/04/23 03:17:11;;;;;;;4.35;3.83;;;14.10;99.90;;;;;;6212550;23;20162;-91
2023/04/23 03:19:37;;;;;;;4.80;3.40;;;13.60;99.90;;;;;;6211339;23;20147;-92
2023/04/23 03:22:04;;;;;;;4.50;4.10;;;14.40;99.90;;;;;;6210995;23;20193;-93
2023/04/23 03:24:33;;;;;;;4.15;3.75;;;14.00;99.90;;;;;;6202642;23;20166;-93
2023/04/23 03:26:59;;;;;;;4.22;3.83;;;13.50;99.90;;;;;;6192717;23;20159;-93
2023/04/23 03:29:25;;;;;;;4.68;4.28;;;13.70;99.90;;;;;;6185488;23;20177;-92
2023/04/23 03:31:50;;;;;;;4.60;4.10;;;13.40;99.90;;;;;;6182487;23;20179;-91
2023/04/23 03:34:16;;;;;;;4.75;4.25;;;14.10;1.00;;;;;;6182624;23;20186;-90
2023/04/23 03:36:43;;;;;;;4.32;3.83;;;13.50;1.00;;;;;;6179675;23;20531;-89
2023/04/23 03:39:09;;;;;;;5.25;4.85;;;13.40;99.90;;;;;;6178307;23;20155;-89
2023/04/23 03:41:35;;;;;;;4.68;4.28;;;13.80;99.90;;;;;;6178532;23;20240;-88
2023/04/23 03:44:00;;;;;;;4.97;4.55;;;13.20;1.00;;;;;;6178531;23;20197;-88
2023/04/23 03:46:27;;;;;;;4.50;4.10;;;13.20;99.90;;;;;;6179000;23;20163;-88
2023/04/23 03:48:52;;;;;;;5.10;4.70;;;13.20;99.90;;;;;;6177427;23;20241;-88
2023/04/23 03:51:18;;;;;;;5.18;4.72;;;13.20;1.00;;;;;;6178435;23;20175;-90
2023/04/23 03:53:45;;;;;;;5.43;4.88;;;13.20;99.90;;;;;;6180013;23;20213;-88
2023/04/23 03:56:10;;;;;;;5.70;5.20;;;13.10;99.90;;;;;;6179002;23;20169;-89
2023/04/23 03:58:36;;;;;;;5.25;4.75;;;13.10;1.00;;;;;;6180333;23;20182;-88
2023/04/23 04:01:01;;;;;;;5.68;5.18;;;13.10;99.90;;;;;;6179592;23;20248;-89
2023/04/23 04:03:27;;;;;;;5.85;5.22;;;13.10;1.00;;;;;;6179607;23;20154;-88
2023/04/23 04:05:53;;;;;;;5.60;5.10;;;13.00;99.90;;;;;;6178322;23;20159;-90
2023/04/23 04:08:19;;;;;;;6.53;5.93;;;13.00;1.00;;;;;;6179633;23;20774;-89
2023/04/23 04:10:44;;;;;;;5.80;5.32;;;13.00;99.90;;;;;;6181287;23;20256;-89
2023/04/23 04:13:10;;;;;;;6.03;5.43;;;12.90;1.00;;;;;;6179108;23;20167;-88
2023/04/23 04:15:36;;;;;;;6.68;6.18;;;12.90;99.90;;;;;;6184054;23;20182;-87
2023/04/23 04:18:01;;;;;;;7.32;6.68;;;12.90;1.00;;;;;;6191883;23;20160;-88
2023/04/23 04:20:29;;;;;;;7.60;7.00;;;12.90;99.90;;;;;;6187421;23;20201;-89
2023/04/23 04:22:55;;;;;;;7.78;6.97;;;13.10;1.00;;;;;;6181174;23;20166;-89
2023/04/23 04:25:21;;;;;;;9.50;8.50;;;12.80;1.00;;;;;;6181472;23;20185;-89
2023/04/23 04:27:48;;;;;;;9.93;9.02;;;12.80;77.10;;;;;;6180838;23;20159;-89
2023/04/23 04:30:14;;;;;;;10.52;9.52;;;12.80;76.40;;;;;;6181330;23;20694;-88
2023/04/23 04:32:41;;;;;;;10.45;9.55;;;12.80;37.70;;;;;;6182416;23;20202;-90
2023/04/23 04:35:13;;;;;;;11.85;10.75;;;12.80;99.90;;;;;;6180438;23;20159;-90
2023/04/23 04:37:38;;;;;;;11.98;10.77;;;12.80;99.90;;;;;;6178700;23;20226;-90
2023/04/23 04:40:06;;;;;;;13.43;12.20;;;12.80;99.90;;;;;;6177378;23;20186;-87
2023/04/23 04:42:32;;;;;;;15.80;14.30;;;12.70;1.00;;;;;;6177900;23;20562;-90
2023/04/23 04:44:58;;;;;;;15.95;14.35;;;12.70;1.00;;;;;;6177362;23;20155;-87
2023/04/23 04:47:24;;;;;;;17.55;15.75;;;12.70;1.00;;;;;;6178046;23;20163;-88
2023/04/23 04:49:49;;;;;;;18.00;16.23;;;12.70;99.90;;;;;;6179440;23;20151;-89
2023/04/23 04:52:16;;;;;;;17.92;16.13;;;12.70;99.90;;;;;;6177757;23;20245;-87
2023/04/23 04:54:42;;;;;;;19.92;17.92;;;12.60;48.10;;;;;;6177747;23;20162;-88
2023/04/23 04:57:07;;;;;;;20.63;18.67;;;12.60;99.90;;;;;;6178093;23;20167;-88
2023/04/23 04:59:33;;;;;;;21.70;19.50;;;12.60;99.90;;;;;;6178015;23;20514;-89
2023/04/23 05:01:59;;;;;;;20.85;18.73;;;12.60;64.80;;;;;;6176413;23;20233;-87
2023/04/23 05:04:24;;;;;;;21.77;19.52;;;12.60;1.00;;;;;;6177683;23;20166;-90
2023/04/23 05:06:50;;;;;;;22.05;19.45;;;12.50;1.00;;;;;;6179231;23;20155;-88
2023/04/23 05:09:17;;;;;;;20.67;18.60;;;12.50;99.90;;;;;;6180414;23;20502;-88
2023/04/23 05:11:47;;;;;;;22.63;20.33;;;12.50;99.90;;;;;;6182252;23;20175;-88
2023/04/23 05:14:12;;;;;;;22.95;20.55;;;12.50;99.90;;;;;;6182541;23;20498;-88
2023/04/23 05:16:38;;;;;;;25.85;23.23;;;12.50;1.00;;;;;;6182616;23;20159;-88
2023/04/23 05:19:03;;;;;;;26.75;23.63;;;12.50;99.90;;;;;;6182425;23;20626;-87
2023/04/23 05:21:30;;;;;;;27.42;23.25;;;12.40;1.00;;;;;;6182316;23;20205;-88
2023/04/23 05:23:56;;;;;;;26.90;23.90;;;13.10;1.00;;;;;;6183914;23;20158;-88
2023/04/23 05:26:21;;;;;;;27.33;24.42;;;12.40;99.90;;;;;;6182045;23;20186;-87
2023/04/23 05:28:47;;;;;;;30.73;26.67;;;12.40;99.90;;;;;;6182593;23;20182;-88
2023/04/23 05:31:12;;;;;;;30.25;26.25;;;12.40;99.90;;;;;;6156801;23;20182;-88
2023/04/23 05:33:38;;;;;;;28.48;24.77;;;12.40;1.00;;;;;;6157100;23;20163;-89
2023/04/23 05:36:04;;;;;;;29.55;26.05;;;12.40;1.00;;;;;;6157642;23;20186;-88
2023/04/23 05:38:29;;;;;;;33.17;27.65;;;12.40;99.90;;;;;;6157375;23;20582;-88
2023/04/23 05:40:55;;;;;;;30.20;25.58;;;12.90;1.00;;;;;;6156889;23;20222;-88
2023/04/23 05:43:20;;;;;;;30.88;26.80;;;12.50;99.90;;;;;;6157029;23;20162;-88
2023/04/23 05:45:46;;;;;;;29.65;25.40;;;12.50;99.90;;;;;;6156807;23;20215;-88
2023/04/23 05:48:12;;;;;;;30.38;27.08;;;12.50;99.90;;;;;;6155912;23;20163;-88
2023/04/23 05:50:37;;;;;;;28.08;24.73;;;12.60;1.00;;;;;;6155888;23;20158;-89
2023/04/23 05:53:03;;;;;;;28.33;25.27;;;12.60;1.00;;;;;;6155650;23;20173;-88
2023/04/23 05:55:28;;;;;;;30.33;26.83;;;12.70;1.00;;;;;;6182211;23;20151;-88
2023/04/23 05:57:54;;;;;;;30.00;26.45;;;12.80;99.90;;;;;;6158287;23;20615;-87
2023/04/23 06:00:20;;;;;;;28.70;25.67;;;13.00;99.90;;;;;;6159865;23;20181;-90
2023/04/23 06:02:46;;;;;;;28.67;25.65;;;13.10;1.00;;;;;;6156680;23;20190;-87
2023/04/23 06:05:12;;;;;;;30.52;26.85;;;13.10;62.40;;;;;;6149162;23;20164;-84
2023/04/23 06:07:38;;;;;;;27.75;24.83;;;13.10;1.00;;;;;;6149880;23;20201;-88
2023/04/23 06:10:04;;;;;;;28.45;25.45;;;13.10;1.00;;;;;;6176964;23;20940;-84
2023/04/23 06:12:31;;;;;;;29.30;26.17;;;13.20;69.90;;;;;;6151971;23;20190;-86
2023/04/23 06:14:56;;;;;;;28.75;25.67;;;13.20;99.90;;;;;;6151812;23;20376;-85
2023/04/23 06:17:22;;;;;;;32.15;27.75;;;13.90;1.00;;;;;;6151754;23;20166;-86
2023/04/23 06:19:48;;;;;;;29.90;26.70;;;13.10;1.00;;;;;;6151398;23;20170;-88
2023/04/23 06:22:13;;;;;;;29.80;26.75;;;13.20;99.90;;;;;;6152221;23;20195;-88
2023/04/23 06:24:39;;;;;;;30.25;27.05;;;13.20;99.90;;;;;;6153079;23;20175;-86
2023/04/23 06:27:05;;;;;;;31.08;27.77;;;13.20;99.90;;;;;;6153041;23;20147;-86
2023/04/23 06:29:30;;;;;;;30.40;27.13;;;13.20;1.00;;;;;;6168518;23;20206;-87
2023/04/23 06:32:00;;;;;;;30.92;27.63;;;13.50;99.90;;;;;;6177173;23;20240;-87
2023/04/23 06:34:25;;;;;;;32.45;28.98;;;13.30;58.10;;;;;;6176975;23;20158;-87
2023/04/23 06:36:51;;;;;;;31.08;27.77;;;13.80;99.90;;;;;;6179277;23;20182;-87
2023/04/23 06:39:16;;;;;;;33.33;29.73;;;13.10;1.00;;;;;;6177637;23;20201;-88
2023/04/23 06:41:43;;;;;;;34.92;31.13;;;13.10;99.90;;;;;;6177944;23;20205;-87
2023/04/23 06:44:08;;;;;;;33.25;29.08;;;12.90;1.00;;;;;;6177097;23;20151;-87
2023/04/23 06:46:34;;;;;;;34.17;30.45;;;12.80;1.00;;;;;;6176701;23;20163;-87
2023/04/23 06:49:00;;;;;;;34.72;29.83;;;12.70;30.10;;;;;;6179272;23;20163;-87
2023/04/23 06:51:26;;;;;;;37.03;31.52;;;12.80;17.80;;;;;;6178702;23;20179;-89
2023/04/23 06:53:52;;;;;;;34.35;30.65;;;12.70;1.00;;;;;;6180741;23;20159;-88
2023/04/23 06:56:18;;;;;;;36.45;31.00;;;12.70;1.00;;;;;;6182347;23;20158;-89
2023/04/23 06:58:43;;;;;;;36.70;31.15;;;12.80;1.00;;;;;;6183324;23;20254;-89
2023/04/23 07:01:10;;;;;;;36.55;30.63;;;12.70;1.00;;;;;;6176885;23;20735;-88
2023/04/23 07:03:35;;;;;;;36.28;31.40;;;12.80;1.00;;;;;;6179966;23;20225;-89
2023/04/23 07:06:01;;;;;;;36.15;31.60;;;12.80;1.00;;;;;;6181699;23;20190;-89
2023/04/23 07:08:27;;;;;;;36.05;31.08;;;13.10;1.00;;;;;;6177718;23;20245;-89
2023/04/23 07:10:52;;;;;;;35.75;30.95;;;12.80;1.00;;;;;;6178795;23;20162;-89
2023/04/23 07:13:18;;;;;;;35.90;31.70;;;12.90;1.00;;;;;;6183426;23;20502;-89
2023/04/23 07:15:43;;;;;;;35.42;31.63;;;13.00;1.00;;;;;;6183793;23;20599;-89
2023/04/23 07:18:09;;;;;;;34.75;31.02;;;13.40;1.00;;;;;;6176643;23;20162;-90
2023/04/23 07:20:35;;;;;;;35.65;31.85;;;13.20;1.00;;;;;;6177039;23;20631;-89
2023/04/23 07:23:02;;;;;;;36.67;32.25;;;13.20;1.00;;;;;;6177064;23;20241;-87
2023/04/23 07:25:29;;;;;;;34.05;30.10;;;13.20;1.00;;;;;;6177505;23;20615;-86
2023/04/23 07:27:55;;;;;;;34.63;30.15;;;13.20;1.00;;;;;;6188058;23;20166;-89
2023/04/23 07:30:22;;;;;;;35.80;31.90;;;13.20;1.00;;;;;;6170806;23;20147;-89
2023/04/23 07:32:48;;;;;;;33.92;30.23;;;13.30;1.00;;;;;;6171839;23;20186;-88
2023/04/23 07:35:14;;;;;;;32.40;29.00;;;13.50;1.00;;;;;;6170232;23;20150;-86
2023/04/23 07:37:39;;;;;;;35.03;31.33;;;13.60;99.90;;;;;;6170475;23;20582;-86
2023/04/23 07:40:07;;;;;;;32.38;28.98;;;13.80;99.90;;;;;;6168940;23;20167;-90
2023/04/23 07:42:33;;;;;;;31.98;28.55;;;13.90;99.90;;;;;;6169940;23;20210;-90
2023/04/23 07:44:58;;;;;;;31.73;28.33;;;13.90;99.90;;;;;;6170370;23;20239;-88
2023/04/23 07:47:24;;;;;;;32.35;28.95;;;14.00;99.90;;;;;;6169724;23;20159;-88
2023/04/23 07:49:50;;;;;;;31.42;28.23;;;14.70;99.90;;;;;;6169752;23;20190;-89
2023/04/23 07:52:16;;;;;;;31.92;28.70;;;14.20;99.90;;;;;;6170457;23;20586;-88
2023/04/23 07:54:43;;;;;;;29.92;26.83;;;14.60;99.90;;;;;;6170141;23;20155;-88
2023/04/23 07:57:10;;;;;;;31.50;28.35;;;14.90;99.90;;;;;;6169918;23;20158;-89
2023/04/23 07:59:37;;;;;;;28.77;25.98;;;15.20;99.90;;;;;;6166623;23;20574;-89
2023/04/23 08:02:03;;;;;;;29.30;26.40;;;16.20;62.70;;;;;;6174106;23;21100;-86
2023/04/23 08:04:29;;;;;;;29.73;26.73;;;15.80;13.90;;;;;;6174324;23;20155;-89
2023/04/23 08:06:54;;;;;;;31.75;28.55;;;15.40;1.30;;;;;;6173515;23;20143;-88
2023/04/23 08:09:20;;;;;;;29.70;26.70;;;15.20;2.20;;;;;;6174046;23;20155;-88
2023/04/23 08:11:47;;;;;;;29.95;26.95;;;15.20;1.00;;;;;;6174646;23;20225;-89
2023/04/23 08:14:12;;;;;;;28.80;25.90;;;15.50;8.80;;;;;;6173702;23;20226;-89
2023/04/23 08:16:38;;;;;;;29.27;26.17;;;14.80;1.00;;;;;;6174508;23;20167;-87
2023/04/23 08:19:04;;;;;;;28.20;25.35;;;15.30;1.00;;;;;;6174264;23;20661;-86
2023/04/23 08:21:33;;;;;;;28.10;25.23;;;15.30;1.00;;;;;;6176713;23;20186;-89
2023/04/23 08:23:59;;;;;;;28.92;25.92;;;14.60;1.00;;;;;;6175651;23;20154;-87
2023/04/23 08:26:25;;;;;;;28.63;25.73;;;14.80;4.30;;;;;;6175549;23;20162;-86
2023/04/23 08:28:51;;;;;;;30.33;27.13;;;14.70;1.00;;;;;;6174398;23;20198;-88
2023/04/23 08:31:16;;;;;;;32.67;29.38;;;14.40;1.00;;;;;;6148806;23;20591;-84
2023/04/23 08:33:42;;;;;;;31.50;28.30;;;14.70;1.00;;;;;;6173559;23;20221;-87
2023/04/23 08:36:08;;;;;;;28.15;25.27;;;15.20;1.00;;;;;;6149690;23;20159;-85
2023/04/23 08:38:34;;;;;;;27.38;24.70;;;14.70;1.00;;;;;;6148317;23;20505;-85
2023/04/23 08:41:04;;;;;;;28.73;25.73;;;15.40;1.00;;;;;;6174629;23;20198;-86
2023/04/23 08:43:40;;;;;;;27.80;25.00;;;15.20;1.00;;;;;;6176882;23;20572;-85
2023/04/23 08:46:10;;;;;;;27.17;24.45;;;15.20;1.00;;;;;;6177003;23;20147;-85
2023/04/23 08:48:36;;;;;;;25.55;22.88;;;15.50;1.00;;;;;;6176327;23;20155;-85
2023/04/23 08:51:03;;;;;;;26.67;23.98;;;15.70;1.00;;;;;;6178651;23;20174;-86
2023/04/23 08:53:31;;;;;;;25.98;23.48;;;15.60;1.00;;;;;;6178650;23;20194;-87
2023/04/23 08:55:58;;;;;;;25.83;23.33;;;15.60;1.00;;;;;;6177108;23;20167;-87
2023/04/23 08:58:26;;;;;;;27.08;24.35;;;16.30;1.00;;;;;;6176789;23;20170;-88
2023/04/23 09:00:54;;;;;;;26.90;24.20;;;15.60;1.00;;;;;;6152884;23;20241;-88
2023/04/23 09:03:20;;;;;;;26.95;24.35;;;15.40;1.00;;;;;;6177110;23;20147;-87
2023/04/23 09:05:47;;;;;;;26.77;24.20;;;14.90;1.00;;;;;;6177366;23;20811;-87
2023/04/23 09:08:12;;;;;;;29.10;26.27;;;15.30;1.00;;;;;;6177029;23;20174;-87
2023/04/23 09:10:40;;;;;;;27.15;24.45;;;15.20;1.00;;;;;;6152012;23;20167;-86
2023/04/23 09:13:06;;;;;;;26.88;24.33;;;15.40;1.00;;;;;;6152875;23;20166;-88
2023/04/23 09:15:35;;;;;;;26.90;24.35;;;15.70;1.00;;;;;;6177027;23;20170;-87
2023/04/23 09:18:01;;;;;;;24.88;22.48;;;15.50;1.00;;;;;;6151821;23;20178;-85
2023/04/23 09:20:26;;;;;;;21.35;19.25;;;15.90;1.00;;;;;;6178422;23;20178;-87
2023/04/23 09:22:52;;;;;;;23.05;20.83;;;15.60;1.00;;;;;;6151947;23;20522;-86
2023/04/23 09:25:20;;;;;;;21.30;19.00;;;16.00;1.00;;;;;;6178438;23;20140;-85
2023/04/23 09:27:47;;;;;;;18.17;16.30;;;15.60;1.00;;;;;;6176826;23;20159;-86
2023/04/23 09:30:13;;;;;;;17.58;15.80;;;15.40;1.00;;;;;;6180167;23;20158;-87
2023/04/23 09:32:41;;;;;;;19.45;17.42;;;15.40;1.00;;;;;;6182271;23;20182;-87
2023/04/23 09:35:12;;;;;;;17.70;16.00;;;15.40;1.00;;;;;;6181671;23;20188;-87
2023/04/23 09:37:41;;;;;;;16.33;14.70;;;15.40;1.00;;;;;;6208400;23;20139;-87
2023/04/23 09:40:07;;;;;;;15.70;14.10;;;15.40;1.00;;;;;;6180936;23;20502;-87
2023/04/23 09:42:33;;;;;;;14.25;12.85;;;15.50;1.00;;;;;;6179277;23;20198;-87
2023/04/23 09:45:03;;;;;;;13.27;12.00;;;15.50;1.00;;;;;;6181137;23;20185;-85
2023/04/23 09:47:33;;;;;;;13.98;12.63;;;15.60;1.00;;;;;;6180941;23;20185;-87
2023/04/23 09:49:59;;;;;;;13.40;12.10;;;15.90;1.00;;;;;;6182575;23;20158;-85
2023/04/23 09:52:25;;;;;;;12.95;11.65;;;15.70;1.00;;;;;;6208111;23;20261;-85
2023/04/23 09:54:51;;;;;;;13.65;12.25;;;15.60;1.00;;;;;;6208861;23;20161;-87
2023/04/23 09:57:17;;;;;;;12.43;11.13;;;15.70;1.00;;;;;;6181713;23;20166;-87
2023/04/23 09:59:43;;;;;;;12.68;11.48;;;15.90;1.00;;;;;;6207876;23;20606;-84
2023/04/23 10:02:10;;;;;;;13.27;11.15;;;16.70;1.00;;;;;;6181613;23;20189;-85
2023/04/23 10:04:37;;;;;;;12.48;11.27;;;16.40;1.00;;;;;;6208351;23;20157;-88
2023/04/23 10:07:07;;;;;;;13.15;11.85;;;16.30;1.00;;;;;;6181529;23;20165;-85
2023/04/23 10:09:33;;;;;;;11.95;10.85;;;16.20;1.00;;;;;;6181337;23;20216;-87
2023/04/23 10:12:01;;;;;;;10.65;9.65;;;16.10;1.00;;;;;;6181546;23;20182;-87
2023/04/23 10:14:28;;;;;;;10.77;9.68;;;16.30;1.00;;;;;;6181372;23;20158;-86
2023/04/23 10:17:03;;;;;;;11.20;10.20;;;16.40;1.00;;;;;;6181569;23;20165;-87
2023/04/23 10:19:30;;;;;;;10.77;9.75;;;16.60;1.00;;;;;;6181346;23;20495;-86
2023/04/23 10:22:03;;;;;;;10.32;9.32;;;16.80;1.00;;;;;;6181629;23;20233;-88
2023/04/23 10:24:31;;;;;;;10.52;9.52;;;16.90;1.00;;;;;;6181609;23;20590;-89
2023/04/23 10:26:59;;;;;;;10.40;9.40;;;17.10;1.00;;;;;;6179492;23;20674;-88
2023/04/23 10:29:32;;;;;;;9.32;8.52;;;17.10;1.00;;;;;;6180332;23;20177;-88
2023/04/23 10:32:03;;;;;;;10.27;9.27;;;17.10;1.00;;;;;;6207723;23;20178;-87
2023/04/23 10:34:31;;;;;;;9.18;8.38;;;17.40;1.00;;;;;;6181169;23;20158;-88
2023/04/23 10:36:58;;;;;;;9.15;8.35;;;16.80;1.00;;;;;;6180859;23;20165;-87
2023/04/23 10:39:30;;;;;;;8.50;7.75;;;17.00;1.00;;;;;;6180424;23;20196;-85
2023/04/23 10:41:57;;;;;;;7.60;6.90;;;17.20;1.00;;;;;;6208352;23;20218;-87
2023/04/23 10:44:31;;;;;;;7.63;6.93;;;17.20;1.00;;;;;;6180708;23;20158;-86
2023/04/23 10:46:59;;;;;;;7.88;7.18;;;17.80;1.00;;;;;;6182803;23;20154;-86
2023/04/23 10:49:28;;;;;;;7.38;6.78;;;17.50;1.00;;;;;;6180433;23;20453;-86
2023/04/23 10:51:57;;;;;;;7.97;7.18;;;17.90;1.00;;;;;;6179059;23;20183;-86
2023/04/23 10:54:31;;;;;;;7.38;6.70;;;17.40;1.00;;;;;;6178495;23;20162;-86
2023/04/23 10:57:00;;;;;;;8.23;7.25;;;17.40;1.00;;;;;;6177367;23;20586;-87
2023/04/23 10:59:28;;;;;;;7.80;7.10;;;17.60;1.00;;;;;;6178058;23;20162;-86
2023/04/23 11:02:04;;;;;;;7.40;6.70;;;17.70;1.00;;;;;;6179243;23;20205;-87
2023/04/23 11:04:30;;;;;;;10.38;8.35;;;17.50;1.00;;;;;;6178325;23;20155;-87
2023/04/23 11:07:05;;;;;;;9.02;7.28;;;17.60;1.00;;;;;;6175105;23;20178;-86
2023/04/23 11:09:53;;;;;;;6.28;5.68;;;17.80;1.00;;;;;;6181294;23;20155;-87
2023/04/23 11:12:28;;;;;;;5.90;5.40;;;17.90;1.00;;;;;;6204109;23;20264;-87
2023/04/23 11:14:55;;;;;;;7.07;6.43;;;17.30;1.00;;;;;;6177209;23;20181;-86
2023/04/23 11:17:31;;;;;;;6.43;5.82;;;17.20;1.00;;;;;;6178003;23;20162;-87
2023/04/23 11:20:02;;;;;;;6.18;5.57;;;17.00;1.00;;;;;;6186295;23;20198;-90
2023/04/23 11:22:36;;;;;;;5.55;5.05;;;17.00;1.00;;;;;;6165238;23;20241;-90
2023/04/23 11:25:04;;;;;;;5.13;4.70;;;17.00;1.00;;;;;;6158760;23;20627;-89
2023/04/23 11:27:31;;;;;;;4.90;4.45;;;17.10;1.00;;;;;;6157772;23;20193;-89
2023/04/23 11:29:58;;;;;;;4.72;4.32;;;17.10;1.00;;;;;;6158010;23;20147;-89
2023/04/23 11:32:28;;;;;;;5.15;4.75;;;17.10;1.00;;;;;;6158766;23;20186;-89
2023/04/23 11:34:56;;;;;;;5.88;5.30;;;17.10;1.00;;;;;;6157794;23;20154;-89
2023/04/23 11:37:24;;;;;;;5.18;4.78;;;17.10;1.00;;;;;;6157681;23;20169;-89
2023/04/23 11:39:50;;;;;;;5.20;4.70;;;17.10;1.00;;;;;;6157911;23;20253;-88
2023/04/23 11:42:24;;;;;;;5.05;4.65;;;17.30;1.00;;;;;;6184628;23;20198;-89
2023/04/23 11:44:58;;;;;;;5.05;4.55;;;17.40;1.00;;;;;;6158187;23;20147;-89
2023/04/23 11:47:26;;;;;;;5.35;4.88;;;17.90;1.00;;;;;;6158534;23;20151;-89
2023/04/23 11:49:52;;;;;;;5.13;4.70;;;18.30;1.00;;;;;;6158354;23;20155;-90
2023/04/23 11:52:18;;;;;;;4.85;4.45;;;18.00;1.00;;;;;;6157782;23;20190;-90
2023/04/23 11:54:44;;;;;;;4.45;4.15;;;18.10;1.00;;;;;;6158079;23;20320;-91
2023/04/23 11:57:09;;;;;;;5.00;4.32;;;18.40;1.00;;;;;;6158388;23;20170;-90
2023/04/23 11:59:35;;;;;;;4.38;3.97;;;18.30;1.00;;;;;;6158317;23;20163;-90
2023/04/23 12:02:01;;;;;;;4.97;4.47;;;18.50;1.00;;;;;;6157418;23;20651;-89
2023/04/23 12:04:29;;;;;;;5.15;4.65;;;18.70;1.00;;;;;;6158183;23;20547;-90
2023/04/23 12:06:58;;;;;;;5.22;4.60;;;18.90;1.00;;;;;;6157892;23;20155;-90
2023/04/23 12:09:26;;;;;;;4.05;3.75;;;19.10;1.00;;;;;;6185213;23;20150;-90
2023/04/23 12:12:00;;;;;;;4.32;4.00;;;18.90;1.00;;;;;;6158052;23;20190;-92
2023/04/23 12:15:09;;;;;;;3.92;3.63;;;18.60;1.00;;;;;;6158206;23;20237;-91
2023/04/23 12:28:27;;;;;;;2.72;2.53;;;19.10;1.00;;;;;;6143502;23;20233;-90
2023/04/23 12:31:17;;;;;;;2.92;2.60;;;19.00;1.00;;;;;;6140176;23;20166;-91
2023/04/23 12:33:43;;;;;;;2.78;2.58;;;19.20;1.00;;;;;;6155488;23;20221;-90
2023/04/23 12:36:36;;;;;;;2.55;2.35;;;19.20;1.00;;;;;;6155546;23;20609;-91
2023/04/23 12:39:27;;;;;;;2.10;1.90;;;19.30;1.00;;;;;;6151657;23;20654;-90
2023/04/23 12:42:14;;;;;;;1.88;1.70;;;19.60;1.00;;;;;;6152766;23;20199;-90
2023/04/23 12:44:45;;;;;;;1.90;1.80;;;19.90;1.00;;;;;;6153286;23;20154;-91
2023/04/23 12:47:20;;;;;;;1.95;1.83;;;20.00;1.00;;;;;;6156953;23;20535;-90
2023/04/23 12:49:48;;;;;;;2.35;1.90;;;19.90;1.00;;;;;;6156182;23;20213;-91
2023/04/23 12:53:08;;;;;;;2.30;1.80;;;19.40;1.00;;;;;;6157185;23;20190;-90
2023/04/23 14:32:49;;;;;;;3.03;2.30;;;18.00;1.00;;;;;;6178653;23;20214;-87
2023/04/23 14:38:38;;;;;;;2.20;2.03;;;17.70;1.00;;;;;;6178116;23;20197;-88